Current Conditions
Scattered
Clouds



Pressure
1024.92 (hPa) - 30.27 (inHG)
Visibility

10.0 (km) - 6.2 (miles)
Temperature
10  °C
Temperature
7  °C
Dewpoint
82  %
 Humidity
Wind Speed
24  km/h
13  kts
15  mph
6.7  m/s
Wind Direction
N
45°
E
90°
135°
S
180°
225°
W
270°
315°
 260°

Due West
Airport Data
EHVK
Volkel Air Base
Metar :EHVK 031003Z AUTO 26013KT 230V300 9999 SCT014 OVC017 10/07 Q1025 GRN TEMPO 27015G25KT
Fri 3rd February 11:03 am
Raw Metar Info
Raw METAR is the most common format in the world for the transmission of observational weather data. It is highly standardized through the International Civil Aviation Organization (ICAO), which allows it to be understood throughout most of the world.
API Info
Data Provided by
https://www.checkwx.com/weather/EHVK

Aviation Weather providing METAR, TAF, AIRMET, SIGMET and OUTLOOK Weather Reports
© Info
CSS/SVG/PHP scripts were developed by weather34.com for use in the weather34 template © 2015-2023

Guide Info provided by Metar-Wikipedia